Time;durP1;ratioP1;P1;durP2;ratioP2;P2;SDS_P1;SDS_P2;PMS_P1;PMS_P2;Temp;Humidity;BMP_temperature;BMP_pressure;BME280_temperature;BME280_humidity;BME280_pressure;Samples;Min_cycle;Max_cycle;Signal;HPM_P1;HPM_P2
2023/05/08 00:00:37;;;;;;;5.45;3.95;;;20.50;61.20;;;;;;5072413;28;20041;-67
2023/05/08 00:03:03;;;;;;;7.90;4.03;;;20.50;61.20;;;;;;5070842;28;20115;-68
2023/05/08 00:05:29;;;;;;;5.70;3.85;;;20.50;61.10;;;;;;5072102;28;20557;-67
2023/05/08 00:08:00;;;;;;;6.68;4.15;;;20.50;61.10;;;;;;5071906;28;20040;-68
2023/05/08 00:10:26;;;;;;;6.28;4.03;;;20.50;61.10;;;;;;5071447;28;20052;-68
2023/05/08 00:12:51;;;;;;;6.68;4.10;;;20.50;61.10;;;;;;5071027;28;20044;-68
2023/05/08 00:15:17;;;;;;;6.13;3.78;;;20.50;61.10;;;;;;5071165;28;20052;-67
2023/05/08 00:17:42;;;;;;;5.60;3.63;;;20.50;61.10;;;;;;5072505;28;20040;-68
2023/05/08 00:20:08;;;;;;;5.45;3.97;;;20.50;61.10;;;;;;5071716;28;20059;-68
2023/05/08 00:22:34;;;;;;;6.38;4.28;;;20.50;61.00;;;;;;5071042;28;20041;-68
2023/05/08 00:25:00;;;;;;;5.25;3.80;;;20.50;61.00;;;;;;5071922;28;20053;-68
2023/05/08 00:27:25;;;;;;;6.28;3.78;;;20.50;61.10;;;;;;5071930;28;20056;-68
2023/05/08 00:29:51;;;;;;;4.88;4.22;;;20.50;61.00;;;;;;5071342;28;20117;-68
2023/05/08 00:32:16;;;;;;;5.82;4.38;;;20.50;61.00;;;;;;5071818;28;20047;-68
2023/05/08 00:34:42;;;;;;;5.38;3.83;;;20.50;61.00;;;;;;5071914;28;20040;-68
2023/05/08 00:37:07;;;;;;;6.00;3.47;;;20.40;61.00;;;;;;5070690;28;20094;-68
2023/05/08 00:39:33;;;;;;;7.00;3.92;;;20.40;60.90;;;;;;5072211;28;20090;-68
2023/05/08 00:41:58;;;;;;;6.03;3.72;;;20.40;60.90;;;;;;5072215;28;20051;-68
2023/05/08 00:44:24;;;;;;;6.47;3.88;;;20.40;60.90;;;;;;5071022;28;20041;-68
2023/05/08 00:46:50;;;;;;;5.93;3.45;;;20.40;60.90;;;;;;5070459;28;20076;-68
2023/05/08 00:49:15;;;;;;;6.03;4.22;;;20.40;60.90;;;;;;5072611;28;20047;-68
2023/05/08 00:51:42;;;;;;;6.43;3.88;;;20.40;60.90;;;;;;5073434;28;20442;-68
2023/05/08 00:54:07;;;;;;;6.10;3.83;;;20.40;60.90;;;;;;5075001;28;20442;-68
2023/05/08 00:56:33;;;;;;;5.25;3.72;;;20.40;60.80;;;;;;5074429;28;20044;-68
2023/05/08 00:58:58;;;;;;;6.28;4.13;;;20.40;60.80;;;;;;5072992;28;20515;-67
2023/05/08 01:01:24;;;;;;;5.63;3.75;;;20.40;60.80;;;;;;5073688;28;20067;-68
2023/05/08 01:03:49;;;;;;;6.63;3.80;;;20.40;60.80;;;;;;5073870;28;20052;-67
2023/05/08 01:06:15;;;;;;;4.35;3.60;;;20.40;60.80;;;;;;5073765;28;20051;-66
2023/05/08 01:08:45;;;;;;;5.45;3.95;;;20.40;60.80;;;;;;5073858;28;20404;-66
2023/05/08 01:11:22;;;;;;;5.97;4.03;;;20.40;60.80;;;;;;5073810;28;20090;-66
2023/05/08 01:14:05;;;;;;;5.22;3.83;;;20.40;60.80;;;;;;5057396;28;20472;-66
2023/05/08 01:16:55;;;;;;;6.97;4.10;;;20.40;60.80;;;;;;5036925;28;20041;-65
2023/05/08 01:19:45;;;;;;;5.13;3.58;;;20.40;60.80;;;;;;5052858;28;20059;-66
2023/05/08 01:22:17;;;;;;;5.32;4.00;;;20.30;60.70;;;;;;5053213;28;20041;-65
2023/05/08 01:25:16;;;;;;;5.63;3.65;;;20.30;60.70;;;;;;5054490;28;20401;-66
2023/05/08 01:28:14;;;;;;;6.25;4.00;;;20.30;60.60;;;;;;5053030;28;20056;-66
2023/05/08 01:31:08;;;;;;;6.35;4.28;;;20.30;60.70;;;;;;5054273;28;20059;-66
2023/05/08 01:33:38;;;;;;;6.20;3.90;;;20.30;60.60;;;;;;5052932;28;20063;-66
2023/05/08 01:36:24;;;;;;;4.47;3.65;;;20.30;60.70;;;;;;5054701;28;20049;-65
2023/05/08 01:38:57;;;;;;;6.82;4.15;;;20.30;60.70;;;;;;5052997;28;20463;-65
2023/05/08 01:41:29;;;;;;;4.63;3.55;;;20.30;60.60;;;;;;5052310;28;20045;-66
2023/05/08 01:44:10;;;;;;;5.65;3.95;;;20.30;60.60;;;;;;5054080;28;20537;-66
2023/05/08 01:46:35;;;;;;;5.57;3.90;;;20.30;60.60;;;;;;5053219;28;20049;-66
2023/05/08 01:49:07;;;;;;;5.55;4.20;;;20.30;60.70;;;;;;5052456;28;20056;-66
2023/05/08 01:51:46;;;;;;;5.00;3.90;;;20.30;60.60;;;;;;5052925;28;20064;-66
2023/05/08 01:54:15;;;;;;;5.35;3.78;;;20.30;60.60;;;;;;5053046;28;20048;-66
2023/05/08 01:56:42;;;;;;;6.15;4.35;;;20.30;60.60;;;;;;5052805;28;20392;-66
2023/05/08 01:59:08;;;;;;;5.07;3.67;;;20.30;60.60;;;;;;5052479;28;20099;-66
2023/05/08 02:01:33;;;;;;;5.70;3.90;;;20.20;60.50;;;;;;5051956;28;20056;-68
2023/05/08 02:03:59;;;;;;;6.18;4.30;;;20.30;60.60;;;;;;5052774;28;20037;-68
2023/05/08 02:06:25;;;;;;;4.90;4.05;;;20.20;60.50;;;;;;5053015;28;20591;-69
2023/05/08 02:08:51;;;;;;;6.25;4.00;;;20.20;60.50;;;;;;5051797;28;20500;-68
2023/05/08 02:11:16;;;;;;;5.85;3.90;;;20.20;60.50;;;;;;5052732;28;20071;-68
2023/05/08 02:13:43;;;;;;;5.10;3.58;;;20.20;60.50;;;;;;5052574;28;20472;-68
2023/05/08 02:16:09;;;;;;;5.10;3.80;;;20.20;60.50;;;;;;5051754;28;20159;-68
2023/05/08 02:18:34;;;;;;;5.45;3.67;;;20.20;60.50;;;;;;5052620;28;20060;-68
2023/05/08 02:21:02;;;;;;;5.00;3.80;;;20.20;60.50;;;;;;5036131;28;20041;-67
2023/05/08 02:23:28;;;;;;;5.90;3.97;;;20.20;60.50;;;;;;5051431;28;20049;-67
2023/05/08 02:25:53;;;;;;;5.97;4.10;;;20.20;60.50;;;;;;5052412;28;20041;-67
2023/05/08 02:28:19;;;;;;;5.45;4.40;;;20.20;60.50;;;;;;5052314;28;20067;-68
2023/05/08 02:30:45;;;;;;;5.22;4.07;;;20.20;60.50;;;;;;5051610;28;20075;-67
2023/05/08 02:33:11;;;;;;;5.10;3.90;;;20.20;60.50;;;;;;5052062;28;20037;-68
2023/05/08 02:35:37;;;;;;;4.90;4.20;;;20.20;60.40;;;;;;5052175;28;20045;-68
2023/05/08 02:38:03;;;;;;;4.97;3.80;;;20.20;60.40;;;;;;5051573;28;20106;-68
2023/05/08 02:40:29;;;;;;;4.55;3.70;;;20.20;60.40;;;;;;5035669;28;20088;-68
2023/05/08 02:42:54;;;;;;;5.78;3.83;;;20.20;60.40;;;;;;5052062;28;20492;-68
2023/05/08 02:45:21;;;;;;;5.63;3.70;;;20.20;60.40;;;;;;5052880;28;20389;-68
2023/05/08 02:47:59;;;;;;;5.72;4.25;;;20.20;60.40;;;;;;5035613;28;20083;-68
2023/05/08 02:50:44;;;;;;;5.13;4.10;;;20.10;60.40;;;;;;5051034;28;20045;-68
2023/05/08 02:53:11;;;;;;;5.18;3.95;;;20.10;60.30;;;;;;5035293;28;20078;-68
2023/05/08 02:55:48;;;;;;;4.80;3.67;;;20.10;60.30;;;;;;5051746;28;20412;-68
2023/05/08 02:58:19;;;;;;;5.13;3.85;;;20.10;60.30;;;;;;5050895;28;20408;-66
2023/05/08 03:00:55;;;;;;;6.15;4.10;;;20.10;60.30;;;;;;5052059;28;20037;-66
2023/05/08 03:03:23;;;;;;;4.90;3.83;;;20.10;60.30;;;;;;5051719;28;20045;-66
2023/05/08 03:05:53;;;;;;;4.30;3.63;;;20.10;60.30;;;;;;5051068;28;20037;-66
2023/05/08 03:08:28;;;;;;;5.75;3.92;;;20.10;60.30;;;;;;5051564;28;20083;-66
2023/05/08 03:10:55;;;;;;;5.15;3.95;;;20.10;60.20;;;;;;5051000;28;20037;-66
2023/05/08 03:13:21;;;;;;;5.20;3.90;;;20.10;60.20;;;;;;5034298;28;20103;-66
2023/05/08 03:16:03;;;;;;;5.45;3.85;;;20.10;60.20;;;;;;5035206;28;20508;-66
2023/05/08 03:18:35;;;;;;;5.57;3.58;;;20.10;60.20;;;;;;5050698;28;20045;-66
2023/05/08 03:21:00;;;;;;;4.40;3.42;;;20.10;60.20;;;;;;5051466;28;20064;-66
2023/05/08 03:23:27;;;;;;;4.60;3.65;;;20.10;60.20;;;;;;5050671;28;20435;-65
2023/05/08 03:25:52;;;;;;;5.43;3.97;;;20.10;60.20;;;;;;5050596;28;20075;-66
2023/05/08 03:28:18;;;;;;;6.45;4.00;;;20.10;60.20;;;;;;5050974;28;20476;-66
2023/05/08 03:30:43;;;;;;;4.70;3.75;;;20.10;60.20;;;;;;5051394;28;20075;-66
2023/05/08 03:33:09;;;;;;;5.00;3.97;;;20.10;60.20;;;;;;5051624;28;20045;-66
2023/05/08 03:35:36;;;;;;;5.55;4.00;;;20.00;60.10;;;;;;5034626;28;20377;-65
2023/05/08 03:38:01;;;;;;;6.22;4.20;;;20.00;60.10;;;;;;5052451;28;20052;-68
2023/05/08 03:40:27;;;;;;;6.18;4.07;;;20.00;60.10;;;;;;5050270;28;20041;-68
2023/05/08 03:42:53;;;;;;;4.85;4.05;;;20.00;60.20;;;;;;5051246;28;20041;-68
2023/05/08 03:45:18;;;;;;;4.82;3.92;;;20.00;60.10;;;;;;5050922;28;20044;-68
2023/05/08 03:47:44;;;;;;;4.82;3.67;;;20.00;60.10;;;;;;5050875;28;20087;-68
2023/05/08 03:50:09;;;;;;;4.32;3.78;;;20.00;60.10;;;;;;5052413;28;20041;-68
2023/05/08 03:52:35;;;;;;;5.13;3.72;;;20.00;60.10;;;;;;5052549;28;20041;-68
2023/05/08 03:55:01;;;;;;;5.60;4.43;;;20.00;60.10;;;;;;5051594;28;20400;-68
2023/05/08 03:57:29;;;;;;;6.45;4.25;;;20.00;60.00;;;;;;5051133;28;20048;-68
2023/05/08 04:00:21;;;;;;;4.97;3.80;;;20.00;60.00;;;;;;5034489;28;20045;-68
2023/05/08 04:03:04;;;;;;;5.43;3.72;;;20.00;60.00;;;;;;5061919;28;20056;-68
2023/05/08 04:06:12;;;;;;;4.63;3.80;;;20.00;59.90;;;;;;5070415;28;20094;-68
2023/05/08 04:08:47;;;;;;;4.97;3.88;;;20.00;59.80;;;;;;5069646;28;20041;-68
2023/05/08 04:11:46;;;;;;;5.20;3.78;;;20.00;59.80;;;;;;5055125;28;20072;-68
2023/05/08 04:14:15;;;;;;;5.20;3.95;;;20.00;59.70;;;;;;5071183;28;20111;-68
2023/05/08 04:16:46;;;;;;;5.30;4.28;;;20.00;59.70;;;;;;5070625;28;20044;-68
2023/05/08 04:19:18;;;;;;;5.43;4.05;;;20.00;59.70;;;;;;5071939;28;20081;-68
2023/05/08 04:21:43;;;;;;;6.57;3.70;;;20.00;59.90;;;;;;5070185;28;20151;-68
2023/05/08 04:24:11;;;;;;;5.22;4.20;;;20.00;59.90;;;;;;5073940;28;20178;-68
2023/05/08 04:26:37;;;;;;;4.65;3.53;;;20.00;60.00;;;;;;5058215;28;20048;-68
2023/05/08 04:29:02;;;;;;;5.05;3.75;;;20.00;60.00;;;;;;5075129;28;20064;-68
2023/05/08 04:31:28;;;;;;;5.32;3.97;;;20.00;60.00;;;;;;5057427;28;20049;-68
2023/05/08 04:33:54;;;;;;;5.43;3.88;;;20.10;60.00;;;;;;5074751;28;20166;-68
2023/05/08 04:36:19;;;;;;;5.13;3.42;;;20.10;60.10;;;;;;5074733;28;20127;-68
2023/05/08 04:38:45;;;;;;;4.93;3.78;;;20.10;60.10;;;;;;5075626;28;20052;-68
2023/05/08 04:41:11;;;;;;;5.07;4.00;;;20.10;60.00;;;;;;5075614;28;20513;-69
2023/05/08 04:43:36;;;;;;;5.10;4.00;;;20.10;60.00;;;;;;5075007;28;20040;-66
2023/05/08 04:46:02;;;;;;;4.75;3.75;;;20.10;60.00;;;;;;5075691;28;20070;-66
2023/05/08 04:48:28;;;;;;;4.35;3.42;;;20.10;60.00;;;;;;5074027;28;20052;-66
2023/05/08 04:50:54;;;;;;;5.22;3.95;;;20.10;60.00;;;;;;5074913;28;20036;-66
2023/05/08 04:53:19;;;;;;;5.82;3.90;;;20.20;60.00;;;;;;5074728;28;20458;-65
2023/05/08 04:55:45;;;;;;;4.25;3.50;;;20.10;60.00;;;;;;5075397;28;20067;-68
2023/05/08 04:58:10;;;;;;;5.15;3.60;;;20.10;60.00;;;;;;5074324;28;20040;-68
2023/05/08 05:00:36;;;;;;;5.38;3.75;;;20.20;60.00;;;;;;5075497;28;20051;-68
2023/05/08 05:03:01;;;;;;;4.75;3.58;;;20.20;60.00;;;;;;5075198;28;20037;-68
2023/05/08 05:05:27;;;;;;;5.05;3.85;;;20.20;60.00;;;;;;5072975;28;20045;-68
2023/05/08 05:07:52;;;;;;;4.90;3.70;;;20.20;60.00;;;;;;5074832;28;20045;-68
2023/05/08 05:10:18;;;;;;;5.53;4.00;;;20.20;60.00;;;;;;5074997;28;20495;-68
2023/05/08 05:12:44;;;;;;;5.07;3.95;;;20.20;59.90;;;;;;5074192;28;20484;-68
2023/05/08 05:15:10;;;;;;;6.00;3.78;;;20.20;59.90;;;;;;5074818;28;20041;-68
2023/05/08 05:17:35;;;;;;;5.22;4.13;;;20.20;59.90;;;;;;5075053;28;20045;-68
2023/05/08 05:20:01;;;;;;;4.57;3.65;;;20.20;59.90;;;;;;5074599;28;20044;-68
2023/05/08 05:22:27;;;;;;;4.95;3.58;;;20.20;59.90;;;;;;5072770;28;20161;-68
2023/05/08 05:24:53;;;;;;;4.55;3.60;;;20.20;59.80;;;;;;5074038;28;20067;-68
2023/05/08 05:27:18;;;;;;;4.10;3.53;;;20.20;59.80;;;;;;5074420;28;20438;-68
2023/05/08 05:29:45;;;;;;;4.20;3.33;;;20.20;59.80;;;;;;5075052;28;20475;-68
2023/05/08 05:32:10;;;;;;;4.57;3.55;;;20.20;59.70;;;;;;5073748;28;20083;-68
2023/05/08 05:34:36;;;;;;;4.05;3.17;;;20.20;59.70;;;;;;5074194;28;20114;-68
2023/05/08 05:37:02;;;;;;;5.30;3.90;;;20.20;59.80;;;;;;5074259;28;20045;-67
2023/05/08 05:39:27;;;;;;;4.75;3.38;;;20.20;59.80;;;;;;5073550;28;20040;-68
2023/05/08 05:41:53;;;;;;;4.78;3.78;;;20.20;59.90;;;;;;5073233;28;20048;-68
2023/05/08 05:44:18;;;;;;;4.05;3.13;;;20.20;59.90;;;;;;5073516;28;20040;-68
2023/05/08 05:46:44;;;;;;;4.85;3.40;;;20.20;60.00;;;;;;5073726;28;20048;-68
2023/05/08 05:49:11;;;;;;;4.50;3.17;;;20.30;60.10;;;;;;5073793;28;20112;-68
2023/05/08 05:51:36;;;;;;;6.47;3.50;;;20.30;60.20;;;;;;5073824;28;20573;-69
2023/05/08 05:54:02;;;;;;;4.20;3.33;;;20.30;60.20;;;;;;5073568;28;20048;-69
2023/05/08 05:56:27;;;;;;;6.15;3.80;;;20.30;60.20;;;;;;5074190;28;20053;-69
2023/05/08 05:58:53;;;;;;;4.45;3.58;;;20.30;60.10;;;;;;5073003;28;20041;-69
2023/05/08 06:01:18;;;;;;;5.40;3.83;;;20.30;60.00;;;;;;5073361;28;20045;-65
2023/05/08 06:03:44;;;;;;;4.35;3.50;;;20.30;60.10;;;;;;5074128;28;20063;-68
2023/05/08 06:06:10;;;;;;;6.25;3.65;;;20.40;60.20;;;;;;5073555;28;20041;-68
2023/05/08 06:08:35;;;;;;;10.88;4.03;;;20.40;60.30;;;;;;5073383;28;20089;-68
2023/05/08 06:11:01;;;;;;;6.20;4.00;;;20.40;60.40;;;;;;5073780;28;20052;-68
2023/05/08 06:13:26;;;;;;;6.88;3.78;;;20.40;60.60;;;;;;5073542;28;20044;-68
2023/05/08 06:15:57;;;;;;;6.03;3.80;;;20.40;60.60;;;;;;5073098;28;20040;-68
2023/05/08 06:18:23;;;;;;;5.72;3.75;;;20.40;60.70;;;;;;5073567;28;20048;-67
2023/05/08 06:20:53;;;;;;;6.85;4.03;;;20.40;60.60;;;;;;5073401;28;20040;-69
2023/05/08 06:23:19;;;;;;;9.52;3.35;;;20.50;61.30;;;;;;5072128;28;20033;-69
2023/05/08 06:25:44;;;;;;;8.02;3.90;;;20.50;60.80;;;;;;5071631;28;20098;-68
2023/05/08 06:28:10;;;;;;;5.93;3.47;;;20.50;60.90;;;;;;5071031;28;20045;-68
2023/05/08 06:30:35;;;;;;;5.30;3.42;;;20.50;61.00;;;;;;5073677;28;20402;-68
2023/05/08 06:33:01;;;;;;;6.20;4.00;;;20.50;61.10;;;;;;5073804;28;20051;-71
2023/05/08 06:35:26;;;;;;;7.82;3.53;;;20.50;61.20;;;;;;5072488;28;20447;-70
2023/05/08 06:37:52;;;;;;;4.75;3.28;;;20.50;61.20;;;;;;5073120;28;20090;-66
2023/05/08 06:40:18;;;;;;;5.85;3.70;;;20.50;61.30;;;;;;5073038;28;20044;-65
2023/05/08 06:42:43;;;;;;;9.63;4.00;;;20.50;61.20;;;;;;5072692;28;20045;-74
2023/05/08 06:45:09;;;;;;;5.25;3.38;;;20.60;61.30;;;;;;5072995;28;20079;-66
2023/05/08 06:47:35;;;;;;;6.28;3.70;;;20.50;61.20;;;;;;5072482;28;20472;-69
2023/05/08 06:50:00;;;;;;;5.35;3.38;;;20.50;61.20;;;;;;5072389;28;20066;-69
2023/05/08 06:52:26;;;;;;;6.07;3.55;;;20.50;61.20;;;;;;5072895;28;20047;-67
2023/05/08 06:54:51;;;;;;;8.73;4.47;;;20.50;61.20;;;;;;5071984;28;20086;-67
2023/05/08 06:57:17;;;;;;;5.30;3.33;;;20.60;61.40;;;;;;5070486;28;20072;-69
2023/05/08 06:59:42;;;;;;;5.95;3.50;;;20.60;61.50;;;;;;5073325;28;20098;-68
2023/05/08 07:02:11;;;;;;;6.88;3.70;;;20.50;61.40;;;;;;5071633;28;20486;-68
2023/05/08 07:04:36;;;;;;;6.75;3.92;;;20.60;62.00;;;;;;5071743;28;20436;-67
2023/05/08 07:07:02;;;;;;;8.50;3.78;;;20.60;61.50;;;;;;5073024;28;20609;-68
2023/05/08 07:09:27;;;;;;;5.55;3.20;;;20.60;61.60;;;;;;5072007;28;20044;-70
2023/05/08 07:11:53;;;;;;;5.45;3.38;;;20.60;62.00;;;;;;5070959;28;20036;-71
2023/05/08 07:14:19;;;;;;;7.35;3.35;;;20.60;61.90;;;;;;5087796;28;20050;-68
2023/05/08 07:16:44;;;;;;;6.35;3.60;;;20.60;61.70;;;;;;5092527;28;20035;-68
2023/05/08 07:19:10;;;;;;;5.18;3.53;;;20.60;61.70;;;;;;5091699;28;20067;-68
2023/05/08 07:21:35;;;;;;;5.45;3.15;;;20.60;61.80;;;;;;5092766;28;20395;-69
2023/05/08 07:24:01;;;;;;;5.10;3.45;;;20.70;61.80;;;;;;5090972;28;20052;-69
2023/05/08 07:26:27;;;;;;;5.43;3.35;;;20.60;61.90;;;;;;5091379;28;20105;-69
2023/05/08 07:28:53;;;;;;;6.97;3.58;;;20.70;62.50;;;;;;5092664;28;20067;-69
2023/05/08 07:31:19;;;;;;;5.03;3.45;;;20.70;61.90;;;;;;5091473;28;20047;-70
2023/05/08 07:33:45;;;;;;;5.43;3.60;;;20.70;61.90;;;;;;5091418;28;20044;-71
2023/05/08 07:36:11;;;;;;;7.75;3.85;;;20.70;61.90;;;;;;5091114;28;20071;-69
2023/05/08 07:38:37;;;;;;;6.65;3.58;;;20.70;62.00;;;;;;5091550;28;20542;-69
2023/05/08 07:41:04;;;;;;;5.15;3.28;;;20.70;62.00;;;;;;5081973;28;20047;-68
2023/05/08 07:43:30;;;;;;;5.28;3.70;;;20.70;62.00;;;;;;5071830;28;20041;-68
2023/05/08 07:45:56;;;;;;;6.82;3.35;;;20.80;62.10;;;;;;5069795;28;20041;-68
2023/05/08 07:48:21;;;;;;;5.82;3.47;;;20.80;62.20;;;;;;5070254;28;20040;-68
2023/05/08 07:50:49;;;;;;;5.32;3.28;;;20.80;62.20;;;;;;5071369;28;20101;-68
2023/05/08 07:53:14;;;;;;;7.03;3.70;;;20.80;62.20;;;;;;5070773;28;20091;-68
2023/05/08 07:55:40;;;;;;;5.60;3.17;;;20.80;62.20;;;;;;5070976;28;20500;-69
2023/05/08 07:58:05;;;;;;;6.00;3.45;;;20.80;62.10;;;;;;5074063;28;20111;-68
2023/05/08 08:00:31;;;;;;;4.00;3.33;;;20.80;62.10;;;;;;5075179;28;20661;-66
2023/05/08 08:02:56;;;;;;;5.85;2.92;;;20.90;62.20;;;;;;5074850;28;20106;-67
2023/05/08 08:05:22;;;;;;;5.30;3.05;;;20.90;62.20;;;;;;5064223;28;20135;-67
2023/05/08 08:07:48;;;;;;;4.97;3.50;;;20.90;62.20;;;;;;5054612;28;20090;-67
2023/05/08 08:10:13;;;;;;;5.97;3.50;;;20.90;62.20;;;;;;5055484;28;20049;-67
2023/05/08 08:12:39;;;;;;;5.03;3.38;;;20.90;62.20;;;;;;5070242;28;20076;-67
2023/05/08 08:15:05;;;;;;;5.28;3.20;;;21.00;62.30;;;;;;5069378;28;20069;-67
2023/05/08 08:17:30;;;;;;;6.28;3.53;;;20.90;62.20;;;;;;5082496;28;20078;-68
2023/05/08 08:19:56;;;;;;;5.15;3.30;;;21.00;62.20;;;;;;5064976;28;20048;-67
2023/05/08 08:22:22;;;;;;;5.07;2.80;;;21.00;62.10;;;;;;5071536;28;20037;-69
2023/05/08 08:24:48;;;;;;;5.35;3.35;;;21.00;62.00;;;;;;5074912;28;20056;-69
2023/05/08 08:27:13;;;;;;;5.03;3.20;;;21.00;61.90;;;;;;5074309;28;20053;-69
2023/05/08 08:29:39;;;;;;;4.45;3.05;;;21.00;61.80;;;;;;5072635;28;20040;-70
2023/05/08 08:32:05;;;;;;;4.53;2.90;;;21.00;61.70;;;;;;5074518;28;20044;-70
2023/05/08 08:34:32;;;;;;;5.57;2.95;;;21.00;61.70;;;;;;5074101;28;20045;-69
2023/05/08 08:36:58;;;;;;;5.60;3.45;;;21.00;61.50;;;;;;5074849;28;20052;-68
2023/05/08 08:39:23;;;;;;;7.85;3.67;;;21.00;61.50;;;;;;5075027;28;20036;-68
2023/05/08 08:41:49;;;;;;;10.43;3.58;;;21.00;61.40;;;;;;5074086;28;20041;-69
2023/05/08 08:44:14;;;;;;;5.85;3.45;;;21.10;61.50;;;;;;5074378;28;20041;-68
2023/05/08 08:46:50;;;;;;;7.82;3.53;;;21.10;61.60;;;;;;5074604;28;20136;-68
2023/05/08 08:49:17;;;;;;;8.07;3.03;;;21.10;61.90;;;;;;5072865;28;20047;-70
2023/05/08 08:51:51;;;;;;;7.60;3.00;;;21.10;61.90;;;;;;5074022;28;20391;-69
2023/05/08 08:54:19;;;;;;;6.43;3.13;;;21.20;62.10;;;;;;5071111;28;20068;-69
2023/05/08 08:56:44;;;;;;;6.40;3.33;;;21.20;62.10;;;;;;5072953;28;20040;-68
2023/05/08 08:59:10;;;;;;;6.20;3.00;;;21.20;62.20;;;;;;5073402;28;20047;-69
2023/05/08 09:01:38;;;;;;;6.97;3.42;;;21.20;62.20;;;;;;5073774;28;20198;-68
2023/05/08 09:04:04;;;;;;;7.78;3.28;;;21.20;62.20;;;;;;5076284;28;20076;-67
2023/05/08 09:06:30;;;;;;;6.30;3.50;;;21.20;62.20;;;;;;5093276;28;20491;-67
2023/05/08 09:08:56;;;;;;;6.15;3.25;;;21.20;62.20;;;;;;5092596;28;20044;-67
2023/05/08 09:11:25;;;;;;;4.40;3.03;;;21.20;62.20;;;;;;5092794;28;20052;-66
2023/05/08 09:13:50;;;;;;;4.80;3.05;;;21.30;62.20;;;;;;5076686;28;20440;-66
2023/05/08 09:16:16;;;;;;;6.93;3.60;;;21.30;62.20;;;;;;5094399;28;20491;-68
2023/05/08 09:18:42;;;;;;;5.80;3.10;;;21.30;62.20;;;;;;5093018;28;20471;-67
2023/05/08 09:21:07;;;;;;;6.75;3.30;;;21.30;62.30;;;;;;5085442;28;20037;-66
2023/05/08 09:23:36;;;;;;;4.00;2.70;;;21.30;62.30;;;;;;5053875;28;20094;-66
2023/05/08 09:26:02;;;;;;;5.70;3.38;;;21.20;62.30;;;;;;5053799;28;20056;-67
2023/05/08 09:28:27;;;;;;;6.57;3.42;;;21.20;62.30;;;;;;5054090;28;20041;-67
2023/05/08 09:30:53;;;;;;;8.73;3.60;;;21.20;62.40;;;;;;5056337;28;20078;-67
2023/05/08 09:33:20;;;;;;;7.88;3.17;;;21.20;62.40;;;;;;5073680;28;20051;-67
2023/05/08 09:35:49;;;;;;;10.40;3.55;;;21.20;62.50;;;;;;5074178;28;20051;-67
2023/05/08 09:38:34;;;;;;;6.93;3.85;;;21.20;62.40;;;;;;5072839;28;20045;-67
2023/05/08 09:41:14;;;;;;;4.32;3.08;;;21.20;62.00;;;;;;5073941;28;20093;-65
2023/05/08 09:43:40;;;;;;;7.32;3.30;;;21.20;62.10;;;;;;5073186;28;20048;-66
2023/05/08 09:46:17;;;;;;;5.00;3.08;;;21.20;62.00;;;;;;5073139;28;20040;-66
2023/05/08 09:48:44;;;;;;;6.80;3.15;;;21.20;62.00;;;;;;5073679;28;20131;-66
2023/05/08 09:51:10;;;;;;;4.40;3.03;;;21.20;62.00;;;;;;5073823;28;20044;-66
2023/05/08 09:53:35;;;;;;;4.38;2.72;;;21.20;62.00;;;;;;5071739;28;20151;-67
2023/05/08 09:56:01;;;;;;;4.95;2.67;;;21.20;62.00;;;;;;5073981;28;20036;-67
2023/05/08 09:58:42;;;;;;;5.15;2.95;;;21.20;62.00;;;;;;5073162;28;20048;-67
2023/05/08 10:01:27;;;;;;;8.23;3.72;;;21.20;62.10;;;;;;5072633;28;20051;-66
2023/05/08 10:03:52;;;;;;;5.38;3.38;;;21.20;62.10;;;;;;5071941;28;20084;-66
2023/05/08 10:06:18;;;;;;;6.05;3.47;;;21.30;62.20;;;;;;5071346;28;20079;-67
2023/05/08 10:08:45;;;;;;;6.10;3.45;;;21.30;62.30;;;;;;5073460;28;20040;-66
2023/05/08 10:11:17;;;;;;;6.25;3.45;;;21.30;62.30;;;;;;5071547;28;20052;-66
2023/05/08 10:13:43;;;;;;;5.10;3.30;;;21.30;62.40;;;;;;5072646;28;20040;-66
2023/05/08 10:16:16;;;;;;;5.40;3.83;;;21.30;62.40;;;;;;5071740;28;20059;-66
2023/05/08 10:18:47;;;;;;;7.35;3.60;;;21.30;62.40;;;;;;5073567;28;20048;-66
2023/05/08 10:21:13;;;;;;;5.40;3.33;;;21.30;62.40;;;;;;5072628;28;20037;-65
2023/05/08 10:23:39;;;;;;;7.88;3.70;;;21.30;62.40;;;;;;5073176;28;20037;-65
2023/05/08 10:26:12;;;;;;;7.45;4.38;;;21.30;62.30;;;;;;5054639;28;20075;-65
2023/05/08 10:28:57;;;;;;;7.15;4.55;;;21.30;62.20;;;;;;5070960;28;20056;-66
2023/05/08 10:31:27;;;;;;;7.53;3.95;;;21.30;62.10;;;;;;5072706;28;20040;-67
2023/05/08 10:33:54;;;;;;;7.85;3.92;;;21.30;62.00;;;;;;5073002;28;20119;-65
2023/05/08 10:36:20;;;;;;;5.78;3.80;;;21.30;62.10;;;;;;5071811;28;20369;-65
2023/05/08 10:38:45;;;;;;;6.72;4.03;;;21.40;62.10;;;;;;5072497;28;20082;-66
2023/05/08 10:41:11;;;;;;;6.38;3.90;;;21.40;62.00;;;;;;5053966;28;20084;-67
2023/05/08 10:43:40;;;;;;;9.23;4.13;;;21.40;62.00;;;;;;5081066;28;20422;-67
2023/05/08 10:46:29;;;;;;;8.85;3.92;;;21.40;61.90;;;;;;5092912;28;20521;-67
2023/05/08 10:49:13;;;;;;;6.10;4.00;;;21.40;62.00;;;;;;5091580;28;20131;-67
2023/05/08 10:52:00;;;;;;;6.80;4.05;;;21.40;61.90;;;;;;5093122;28;20044;-65
2023/05/08 10:54:50;;;;;;;7.55;3.78;;;21.50;62.00;;;;;;5091252;28;20147;-66
2023/05/08 10:57:16;;;;;;;7.30;3.65;;;21.50;61.90;;;;;;5074037;28;20047;-66
2023/05/08 10:59:45;;;;;;;7.35;4.25;;;21.50;61.90;;;;;;5092835;28;20046;-67
2023/05/08 11:02:11;;;;;;;6.88;4.18;;;21.50;61.90;;;;;;5092710;28;20040;-62
2023/05/08 11:04:37;;;;;;;6.05;4.13;;;21.50;61.90;;;;;;5092063;28;20070;-69
2023/05/08 11:07:03;;;;;;;6.00;3.80;;;21.50;61.80;;;;;;5091691;28;20118;-67
2023/05/08 11:09:43;;;;;;;9.27;4.50;;;21.50;61.80;;;;;;5091832;28;20043;-64
2023/05/08 11:12:17;;;;;;;7.13;3.88;;;21.50;61.80;;;;;;5092341;28;20072;-66
2023/05/08 11:14:43;;;;;;;8.38;3.97;;;21.50;61.80;;;;;;5092811;28;20040;-66
2023/05/08 11:17:09;;;;;;;8.23;3.85;;;21.50;61.80;;;;;;5073270;28;20065;-65
2023/05/08 11:19:35;;;;;;;6.60;4.15;;;21.40;61.80;;;;;;5071389;28;20052;-66
2023/05/08 11:22:11;;;;;;;6.95;4.40;;;21.40;62.00;;;;;;5071968;28;20089;-66
2023/05/08 11:24:37;;;;;;;8.57;4.60;;;21.50;62.20;;;;;;5073752;28;20109;-66
2023/05/08 11:27:03;;;;;;;8.85;4.22;;;21.50;62.20;;;;;;5071946;28;20037;-65
2023/05/08 11:29:28;;;;;;;7.22;4.50;;;21.50;62.20;;;;;;5071656;28;20048;-66
2023/05/08 11:31:54;;;;;;;7.57;4.63;;;21.50;62.30;;;;;;5069432;28;20045;-65
2023/05/08 11:34:41;;;;;;;7.93;5.00;;;21.50;62.30;;;;;;5071715;28;20491;-65
2023/05/08 11:37:20;;;;;;;6.37;4.17;;;21.50;62.30;;;;;;5071169;28;20032;-65
2023/05/08 11:39:48;;;;;;;5.97;4.72;;;21.50;62.30;;;;;;5071130;28;20091;-65
2023/05/08 11:42:23;;;;;;;6.20;4.15;;;21.50;62.30;;;;;;5071210;28;20547;-65
2023/05/08 11:45:05;;;;;;;7.72;5.15;;;21.50;62.30;;;;;;5068865;28;20063;-65
2023/05/08 11:47:52;;;;;;;6.90;4.38;;;21.50;62.30;;;;;;5069115;28;20047;-65
2023/05/08 11:50:18;;;;;;;8.15;5.20;;;21.50;62.30;;;;;;5076713;28;20487;-65
2023/05/08 11:52:43;;;;;;;7.10;4.45;;;21.60;62.40;;;;;;5069270;28;20119;-65
2023/05/08 11:55:10;;;;;;;8.63;5.28;;;21.60;62.40;;;;;;5052747;28;20044;-65
2023/05/08 11:57:36;;;;;;;7.95;4.78;;;21.60;62.40;;;;;;5071710;28;20040;-66
2023/05/08 12:00:08;;;;;;;7.53;5.60;;;21.60;62.40;;;;;;5069525;28;20036;-66
2023/05/08 12:02:46;;;;;;;7.15;5.32;;;21.60;62.20;;;;;;5069446;28;20479;-66
2023/05/08 12:05:11;;;;;;;7.25;5.25;;;21.60;62.20;;;;;;5070503;28;20135;-66
2023/05/08 12:07:46;;;;;;;7.60;4.57;;;21.60;62.20;;;;;;5070485;28;20575;-63
2023/05/08 12:10:15;;;;;;;8.23;4.50;;;21.60;62.30;;;;;;5069475;28;20517;-67
2023/05/08 12:12:42;;;;;;;10.52;5.35;;;21.60;62.20;;;;;;5070387;28;20086;-67
2023/05/08 12:15:08;;;;;;;8.45;4.88;;;21.60;62.20;;;;;;5070625;28;20730;-67
2023/05/08 12:17:34;;;;;;;7.05;4.13;;;21.60;62.30;;;;;;5071830;28;20036;-67
2023/05/08 12:20:13;;;;;;;8.02;4.75;;;21.60;62.20;;;;;;5069901;28;20056;-67
2023/05/08 12:22:42;;;;;;;6.47;4.55;;;21.60;62.30;;;;;;5071783;28;20083;-67
2023/05/08 12:25:09;;;;;;;7.45;4.90;;;21.60;62.30;;;;;;5071094;28;20135;-67
2023/05/08 12:27:36;;;;;;;7.68;5.07;;;21.60;62.30;;;;;;5070831;28;20058;-67
2023/05/08 12:30:06;;;;;;;7.53;4.82;;;21.60;62.30;;;;;;5071876;28;20068;-67
2023/05/08 12:32:32;;;;;;;8.05;5.13;;;21.60;62.30;;;;;;5070397;28;20469;-67
2023/05/08 12:34:57;;;;;;;7.68;4.97;;;21.60;62.30;;;;;;5036680;28;20057;-66
2023/05/08 12:37:26;;;;;;;6.53;4.70;;;21.60;62.30;;;;;;5053104;28;20075;-66
2023/05/08 12:39:51;;;;;;;;;;;21.70;62.40;;;;;;5071881;28;20472;-67
2023/05/08 12:42:17;;;;;;;7.55;4.18;;;21.60;62.30;;;;;;5070626;28;19947;-67
2023/05/08 12:44:48;;;;;;;5.78;4.35;;;21.60;62.30;;;;;;5071520;28;20079;-67
2023/05/08 12:47:14;;;;;;;7.00;4.50;;;21.60;62.30;;;;;;5058083;28;20091;-67
2023/05/08 12:49:39;;;;;;;5.90;4.35;;;21.60;62.20;;;;;;5074573;28;20080;-67
2023/05/08 12:52:12;;;;;;;6.43;4.53;;;21.70;62.40;;;;;;5075231;28;20043;-67
2023/05/08 12:54:39;;;;;;;8.55;5.03;;;21.60;62.30;;;;;;5074925;28;20040;-66